Time;durP1;ratioP1;P1;durP2;ratioP2;P2;SDS_P1;SDS_P2;PMS_P1;PMS_P2;Temp;Humidity;BMP_temperature;BMP_pressure;BME280_temperature;BME280_humidity;BME280_pressure;Samples;Min_cycle;Max_cycle;Signal;HPM_P1;HPM_P2
2021/10/09 00:00:41;;;;;;;21.40;14.60;;;6.40;99.90;;;;;;5013573;28;20449;-93
2021/10/09 00:03:08;;;;;;;17.90;13.10;;;;;;;;;;5013370;28;20475;-90
2021/10/09 00:05:35;;;;;;;19.27;12.93;;;;;;;;;;5015362;28;20451;-86
2021/10/09 00:08:02;;;;;;;21.83;15.33;;;;;;;;;;5019500;28;20447;-88
2021/10/09 00:10:32;;;;;;;19.47;14.03;;;;;;;;;;5014766;28;20785;-86
2021/10/09 00:12:59;;;;;;;18.90;15.03;;;;;;;;;;5013473;28;20459;-87
2021/10/09 00:15:26;;;;;;;23.63;13.80;;;;;;;;;;5013862;28;20463;-87
2021/10/09 00:17:55;;;;;;;20.30;14.33;;;6.30;99.90;;;;;;5013689;28;20444;-87
2021/10/09 00:20:22;;;;;;;17.67;13.80;;;;;;;;;;5009115;28;20455;-91
2021/10/09 00:22:49;;;;;;;20.97;14.10;;;;;;;;;;5011948;28;20445;-87
2021/10/09 00:25:16;;;;;;;22.40;15.93;;;;;;;;;;5013260;28;20544;-90
2021/10/09 00:27:44;;;;;;;25.63;15.20;;;;;;;;;;5012219;28;20464;-90
2021/10/09 00:30:11;;;;;;;19.87;14.23;;;;;;;;;;5013478;28;20877;-88
2021/10/09 00:32:39;;;;;;;21.67;14.73;;;;;;;;;;5013874;28;20456;-90
2021/10/09 00:35:08;;;;;;;20.40;13.60;;;6.10;99.90;;;;;;5013299;28;20468;-85
2021/10/09 00:37:35;;;;;;;22.90;15.70;;;;;;;;;;5012021;28;20449;-86
2021/10/09 00:40:03;;;;;;;20.70;13.73;;;;;;;;;;5013322;28;20444;-86
2021/10/09 00:42:30;;;;;;;26.17;15.30;;;;;;;;;;5013305;28;20444;-86
2021/10/09 00:44:57;;;;;;;22.37;14.60;;;;;;;;;;5013154;28;20496;-90
2021/10/09 00:47:25;;;;;;;21.57;14.33;;;5.90;99.90;;;;;;5013254;28;20448;-86
2021/10/09 00:49:52;;;;;;;22.20;15.10;;;;;;;;;;5017179;28;20453;-90
2021/10/09 00:52:25;;;;;;;22.50;15.27;;;5.80;99.90;;;;;;5015910;28;20444;-89
2021/10/09 00:54:52;;;;;;;23.77;14.87;;;;;;;;;;5017106;28;20448;-88
2021/10/09 00:57:22;;;;;;;27.90;15.90;;;5.80;99.90;;;;;;5023110;28;20452;-86
2021/10/09 00:59:50;;;;;;;30.53;17.03;;;5.70;99.90;;;;;;5020224;28;20491;-89
2021/10/09 01:02:18;;;;;;;26.93;13.93;;;5.70;99.90;;;;;;5016714;28;20494;-87
2021/10/09 01:04:47;;;;;;;20.37;14.27;;;5.80;99.90;;;;;;5016653;28;20491;-86
2021/10/09 01:07:14;;;;;;;22.63;14.87;;;;;;;;;;5015373;28;20478;-87
2021/10/09 01:09:45;;;;;;;22.23;15.07;;;5.80;99.90;;;;;;5016604;28;20471;-89
2021/10/09 01:12:14;;;;;;;18.83;13.97;;;6.90;99.90;;;;;;5016783;28;20464;-89
2021/10/09 01:14:41;;;;;;;22.20;14.10;;;;;;;;;;5013131;28;20459;-87
2021/10/09 01:17:10;;;;;;;16.63;13.50;;;5.80;99.90;;;;;;5016494;28;20452;-88
2021/10/09 01:19:38;;;;;;;25.13;15.47;;;;;;;;;;4982040;28;20448;-87
2021/10/09 01:22:06;;;;;;;20.17;14.23;;;5.80;99.90;;;;;;5015154;28;20459;-88
2021/10/09 01:24:33;;;;;;;20.50;14.53;;;;;;;;;;5016260;28;21049;-86
2021/10/09 01:27:00;;;;;;;19.83;14.37;;;;;;;;;;5016356;28;20455;-91
2021/10/09 01:29:28;;;;;;;19.57;13.57;;;;;;;;;;5016455;28;20459;-88
2021/10/09 01:31:55;;;;;;;20.40;13.63;;;;;;;;;;5013551;28;20480;-87
2021/10/09 01:34:23;;;;;;;24.10;15.43;;;5.70;99.90;;;;;;5016046;28;20444;-87
2021/10/09 01:36:52;;;;;;;21.97;14.60;;;;;;;;;;5015161;28;20458;-86
2021/10/09 01:39:20;;;;;;;21.10;14.40;;;5.60;99.90;;;;;;5016504;28;20459;-87
2021/10/09 01:41:49;;;;;;;22.00;13.87;;;5.50;99.90;;;;;;5017122;28;20448;-88
2021/10/09 01:44:17;;;;;;;23.60;13.37;;;5.50;99.90;;;;;;5016847;28;20495;-88
2021/10/09 01:46:44;;;;;;;20.00;13.50;;;;;;;;;;5017805;28;20452;-90
2021/10/09 01:49:12;;;;;;;18.23;12.83;;;;;;;;;;5018398;28;20451;-87
2021/10/09 01:51:39;;;;;;;20.83;13.27;;;;;;;;;;5019569;28;20460;-86
2021/10/09 01:54:06;;;;;;;19.30;12.43;;;;;;;;;;5021355;28;20452;-88
2021/10/09 01:56:34;;;;;;;17.97;12.43;;;5.30;99.90;;;;;;5020265;28;20819;-90
2021/10/09 01:59:01;;;;;;;18.60;12.93;;;;;;;;;;5013579;28;20492;-88
2021/10/09 02:01:28;;;;;;;21.90;14.17;;;;;;;;;;5015302;28;20948;-87
2021/10/09 02:03:56;;;;;;;19.97;13.07;;;;;;;;;;5016092;28;20479;-92
2021/10/09 02:06:23;;;;;;;18.63;12.80;;;;;;;;;;5014626;28;20455;-87
2021/10/09 02:08:50;;;;;;;21.13;13.83;;;;;;;;;;5016434;28;20935;-87
2021/10/09 02:11:20;;;;;;;19.47;12.20;;;;;;;;;;5017638;28;20454;-86
2021/10/09 02:13:55;;;;;;;19.50;13.00;;;5.30;99.90;;;;;;5017607;28;20449;-88
2021/10/09 02:16:49;;;;;;;22.13;13.40;;;;;;;;;;5017696;28;20448;-88
2021/10/09 02:27:29;;;;;;;21.17;12.33;;;;;;;;;;5016353;28;20452;-91
2021/10/09 02:29:57;;;;;;;18.30;13.00;;;5.20;99.90;;;;;;5015361;28;20449;-87
2021/10/09 02:32:24;;;;;;;19.23;13.97;;;;;;;;;;5015151;28;20490;-86
2021/10/09 02:34:52;;;;;;;19.13;12.03;;;;;;;;;;5014904;28;20456;-86
2021/10/09 02:37:19;;;;;;;18.80;12.93;;;5.20;99.90;;;;;;5013594;28;20548;-88
2021/10/09 02:39:47;;;;;;;20.83;12.90;;;;;;;;;;5015040;28;20448;-90
2021/10/09 02:42:14;;;;;;;20.10;13.60;;;;;;;;;;5014837;28;20550;-90
2021/10/09 02:44:41;;;;;;;21.03;12.60;;;;;;;;;;5014827;28;20492;-87
2021/10/09 02:47:09;;;;;;;25.40;14.73;;;5.20;99.90;;;;;;5014988;28;20448;-86
2021/10/09 02:49:36;;;;;;;22.93;13.70;;;;;;;;;;5014470;28;20468;-89
2021/10/09 02:52:04;;;;;;;18.33;12.87;;;;;;;;;;5013261;28;20468;-90
2021/10/09 02:54:31;;;;;;;22.07;13.50;;;;;;;;;;5014866;28;20456;-86
2021/10/09 02:56:58;;;;;;;21.43;13.00;;;;;;;;;;5014731;28;20452;-86
2021/10/09 02:59:25;;;;;;;27.13;14.33;;;;;;;;;;5014350;28;20476;-88
2021/10/09 03:01:52;;;;;;;20.20;14.10;;;;;;;;;;5010430;28;20475;-85
2021/10/09 03:04:21;;;;;;;19.40;12.87;;;5.10;99.90;;;;;;5014344;28;20514;-87
2021/10/09 03:06:48;;;;;;;21.47;12.77;;;;;;;;;;5012945;28;20455;-86
2021/10/09 03:09:15;;;;;;;22.37;15.00;;;;;;;;;;5014196;28;20456;-91
2021/10/09 03:11:42;;;;;;;18.73;13.40;;;;;;;;;;5013826;28;20456;-87
2021/10/09 03:14:10;;;;;;;19.43;13.70;;;;;;;;;;5014441;28;20449;-87
2021/10/09 03:16:37;;;;;;;26.13;14.30;;;;;;;;;;5014639;28;20452;-88
2021/10/09 03:19:04;;;;;;;19.10;13.77;;;;;;;;;;5014913;28;20444;-92
2021/10/09 03:21:32;;;;;;;22.13;13.17;;;4.90;99.90;;;;;;5013209;28;20459;-86
2021/10/09 03:23:59;;;;;;;17.27;13.30;;;;;;;;;;5014386;28;20456;-90
2021/10/09 03:26:26;;;;;;;18.60;13.00;;;;;;;;;;5014157;28;20500;-86
2021/10/09 03:28:53;;;;;;;18.90;12.80;;;;;;;;;;5014222;28;20448;-87
2021/10/09 03:31:20;;;;;;;25.07;14.57;;;;;;;;;;5010072;28;20857;-91
2021/10/09 03:33:48;;;;;;;21.30;13.17;;;;;;;;;;5010191;28;20464;-88
2021/10/09 03:36:16;;;;;;;18.60;13.17;;;;;;;;;;5012882;28;20460;-88
2021/10/09 03:38:44;;;;;;;23.20;13.50;;;;;;;;;;5014044;28;20460;-87
2021/10/09 03:41:13;;;;;;;21.00;14.50;;;;;;;;;;5013885;28;20947;-91
2021/10/09 03:43:42;;;;;;;22.00;13.73;;;;;;;;;;5010831;28;20538;-85
2021/10/09 03:46:13;;;;;;;19.17;13.70;;;;;;;;;;5013499;28;20496;-89
2021/10/09 03:48:50;;;;;;;24.87;14.03;;;;;;;;;;5013983;28;20552;-89
2021/10/09 03:54:03;;;;;;;18.97;13.23;;;4.60;99.90;;;;;;5015305;28;20941;-87
2021/10/09 03:56:30;;;;;;;19.73;13.80;;;;;;;;;;5010646;28;20928;-90
2021/10/09 03:58:57;;;;;;;26.73;14.30;;;;;;;;;;5013658;28;20480;-86
2021/10/09 04:01:24;;;;;;;22.07;14.77;;;;;;;;;;5009003;28;20469;-86
2021/10/09 04:03:52;;;;;;;20.83;14.23;;;;;;;;;;5010621;28;20452;-87
2021/10/09 04:06:19;;;;;;;25.77;14.57;;;;;;;;;;5012727;28;20492;-86
2021/10/09 04:08:46;;;;;;;22.07;14.83;;;;;;;;;;5013694;28;20452;-91
2021/10/09 04:11:14;;;;;;;22.83;14.20;;;4.70;99.90;;;;;;5008982;28;20460;-91
2021/10/09 04:13:42;;;;;;;23.67;14.10;;;;;;;;;;5010586;28;20459;-89
2021/10/09 04:16:09;;;;;;;25.73;14.57;;;;;;;;;;5013745;28;20534;-86
2021/10/09 04:18:36;;;;;;;20.70;14.20;;;;;;;;;;5013434;28;20975;-93
2021/10/09 04:21:04;;;;;;;26.70;15.87;;;;;;;;;;5012111;28;20456;-93
2021/10/09 04:23:31;;;;;;;21.13;14.47;;;;;;;;;;5009851;28;20959;-87
2021/10/09 04:25:58;;;;;;;22.60;13.27;;;;;;;;;;5013545;28;20519;-88
2021/10/09 04:28:26;;;;;;;22.37;13.40;;;4.70;99.90;;;;;;5013360;28;20445;-89
2021/10/09 04:30:53;;;;;;;20.30;14.90;;;;;;;;;;5013184;28;20453;-87
2021/10/09 04:33:20;;;;;;;22.60;13.90;;;;;;;;;;5013315;28;20467;-87
2021/10/09 04:35:48;;;;;;;25.37;13.70;;;;;;;;;;5012340;28;20460;-87
2021/10/09 04:38:15;;;;;;;29.00;15.40;;;;;;;;;;5020488;28;20455;-86
2021/10/09 04:40:42;;;;;;;19.73;13.80;;;4.80;99.90;;;;;;5016095;28;20497;-88
2021/10/09 04:43:09;;;;;;;18.10;13.53;;;;;;;;;;5013318;28;20447;-91
2021/10/09 04:45:37;;;;;;;20.23;13.87;;;4.70;99.90;;;;;;5011038;28;20492;-91
2021/10/09 04:48:05;;;;;;;26.53;15.03;;;;;;;;;;5009436;28;20456;-87
2021/10/09 04:50:32;;;;;;;22.23;14.40;;;;;;;;;;5013256;28;20444;-87
2021/10/09 04:52:59;;;;;;;20.63;13.93;;;;;;;;;;5010386;28;20529;-88
2021/10/09 04:55:27;;;;;;;23.73;14.13;;;;;;;;;;5013049;28;20455;-90
2021/10/09 04:57:55;;;;;;;23.00;13.90;;;4.60;99.90;;;;;;5012821;28;20456;-91
2021/10/09 05:00:22;;;;;;;17.27;12.43;;;;;;;;;;5013527;28;20447;-89
2021/10/09 05:02:50;;;;;;;22.60;13.00;;;4.70;99.90;;;;;;5008161;28;20468;-87
2021/10/09 05:05:17;;;;;;;24.37;12.63;;;;;;;;;;5013235;28;20491;-88
2021/10/09 05:07:44;;;;;;;19.07;12.90;;;;;;;;;;5007618;28;20468;-91
2021/10/09 05:10:11;;;;;;;21.10;13.30;;;;;;;;;;5013540;28;20456;-86
2021/10/09 05:12:39;;;;;;;19.87;14.37;;;;;;;;;;5013199;28;20456;-90
2021/10/09 05:15:06;;;;;;;17.07;12.90;;;;;;;;;;5013113;28;20455;-90
2021/10/09 05:17:33;;;;;;;17.50;13.37;;;;;;;;;;5022813;28;20459;-87
2021/10/09 05:20:02;;;;;;;19.27;13.50;;;4.60;99.90;;;;;;5013709;28;20452;-86
2021/10/09 05:22:30;;;;;;;16.00;12.20;;;;;;;;;;5009001;28;20966;-87
2021/10/09 05:24:58;;;;;;;17.00;12.37;;;;;;;;;;5013062;28;20456;-87
2021/10/09 05:27:27;;;;;;;17.17;11.77;;;;;;;;;;5012959;28;20539;-90
2021/10/09 05:29:54;;;;;;;21.90;12.53;;;;;;;;;;5013378;28;20453;-86
2021/10/09 05:32:23;;;;;;;19.00;12.97;;;;;;;;;;5012860;28;20966;-87
2021/10/09 05:34:51;;;;;;;20.33;12.20;;;;;;;;;;5012887;28;20453;-89
2021/10/09 05:37:19;;;;;;;17.30;12.73;;;4.50;99.90;;;;;;5016204;28;20455;-88
2021/10/09 05:39:46;;;;;;;20.10;13.50;;;;;;;;;;5016862;28;20451;-86
2021/10/09 05:42:13;;;;;;;21.43;14.03;;;;;;;;;;5017976;28;21000;-88
2021/10/09 05:44:40;;;;;;;16.07;12.03;;;;;;;;;;5022857;28;20444;-87
2021/10/09 05:47:07;;;;;;;18.80;12.97;;;;;;;;;;5017741;28;20503;-91
2021/10/09 05:49:36;;;;;;;18.20;13.60;;;;;;;;;;5018130;28;20448;-88
2021/10/09 05:52:07;;;;;;;18.30;12.83;;;;;;;;;;5017851;28;20462;-87
2021/10/09 05:54:40;;;;;;;24.00;13.33;;;4.80;99.90;;;;;;5020049;28;20815;-86
2021/10/09 05:57:11;;;;;;;20.23;14.43;;;;;;;;;;5019873;28;20821;-87
2021/10/09 06:00:07;;;;;;;21.10;14.57;;;;;;;;;;5019027;28;20480;-86
2021/10/09 06:44:27;;;;;;;16.17;11.70;;;8.50;99.90;;;;;;5026210;28;20487;-88
2021/10/09 06:47:07;;;;;;;18.50;11.97;;;;;;;;;;5015727;28;20507;-89
2021/10/09 07:00:33;;;;;;;15.23;11.63;;;9.50;99.90;;;;;;5015882;28;20475;-89
2021/10/09 07:03:00;;;;;;;16.43;12.07;;;;;;;;;;5014791;28;20445;-87
2021/10/09 07:05:27;;;;;;;24.33;11.60;;;;;;;;;;5014987;28;20484;-89
2021/10/09 07:07:57;;;;;;;16.00;11.13;;;;;;;;;;5013974;28;20448;-87
2021/10/09 07:10:24;;;;;;;17.80;13.17;;;;;;;;;;5014579;28;20835;-87
2021/10/09 07:12:51;;;;;;;22.27;13.60;;;;;;;;;;5014530;28;20448;-91
2021/10/09 07:15:18;;;;;;;17.03;12.50;;;;;;;;;;5014553;28;20452;-87
2021/10/09 07:17:47;;;;;;;16.67;13.47;;;11.10;99.90;;;;;;5011617;28;20483;-91
2021/10/09 07:20:14;;;;;;;17.70;12.50;;;;;;;;;;5011556;28;20460;-89
2021/10/09 07:22:42;;;;;;;23.50;13.20;;;;;;;;;;5013191;28;20461;-93
2021/10/09 07:25:09;;;;;;;17.00;13.97;;;;;;;;;;5014713;28;20488;-89
2021/10/09 07:27:37;;;;;;;15.80;12.00;;;;;;;;;;5015443;28;20464;-90
2021/10/09 07:30:05;;;;;;;14.43;12.97;;;12.40;99.90;;;;;;5015360;28;20452;-87
2021/10/09 07:32:32;;;;;;;16.30;11.50;;;;;;;;;;5014736;28;20440;-89
2021/10/09 07:35:00;;;;;;;16.83;12.73;;;12.60;99.90;;;;;;5014324;28;20456;-88
2021/10/09 07:37:27;;;;;;;15.90;12.30;;;;;;;;;;5009864;28;20818;-90
2021/10/09 07:39:55;;;;;;;13.47;12.10;;;;;;;;;;5011340;28;20444;-87
2021/10/09 07:42:22;;;;;;;18.13;13.80;;;;;;;;;;5014265;28;20451;-87
2021/10/09 07:44:50;;;;;;;14.50;13.10;;;;;;;;;;5014207;28;20456;-87
2021/10/09 07:47:17;;;;;;;16.90;12.53;;;;;;;;;;5014085;28;20550;-88
2021/10/09 07:49:45;;;;;;;16.37;13.33;;;;;;;;;;5011137;28;20441;-86
2021/10/09 07:52:13;;;;;;;13.07;11.70;;;13.60;99.90;;;;;;5012718;28;20479;-94
2021/10/09 07:54:40;;;;;;;15.77;13.40;;;;;;;;;;5014017;28;20503;-89
2021/10/09 07:57:07;;;;;;;15.60;12.87;;;;;;;;;;5013404;28;20452;-88
2021/10/09 07:59:35;;;;;;;16.50;14.80;;;14.10;99.90;;;;;;5013438;28;20480;-87
2021/10/09 08:02:04;;;;;;;14.93;13.43;;;;;;;;;;5014068;28;20452;-87
2021/10/09 08:04:31;;;;;;;15.77;13.80;;;;;;;;;;5013775;28;20456;-92
2021/10/09 08:06:58;;;;;;;19.40;13.20;;;;;;;;;;5012548;28;20498;-88
2021/10/09 08:09:30;;;;;;;18.10;14.87;;;14.40;99.90;;;;;;5019092;28;20460;-86
2021/10/09 08:11:57;;;;;;;15.77;14.13;;;;;;;;;;5016510;28;20547;-91
2021/10/09 08:14:24;;;;;;;14.60;12.97;;;;;;;;;;5013340;28;20456;-89
2021/10/09 08:16:52;;;;;;;15.50;13.27;;;;;;;;;;5013460;28;20935;-88
2021/10/09 08:19:19;;;;;;;16.60;12.87;;;;;;;;;;5011320;28;20457;-89
2021/10/09 08:21:46;;;;;;;14.73;13.17;;;;;;;;;;5012550;28;20457;-90
2021/10/09 08:24:22;;;;;;;14.30;12.80;;;15.40;99.90;;;;;;5013467;28;20453;-87
2021/10/09 08:40:32;;;;;;;18.90;13.57;;;;;;;;;;5012952;28;20985;-89
2021/10/09 08:43:01;;;;;;;16.83;13.40;;;16.40;99.90;;;;;;5013008;28;20444;-88
2021/10/09 08:45:28;;;;;;;19.10;14.33;;;;;;;;;;5008634;28;20812;-89
2021/10/09 08:47:55;;;;;;;17.80;13.17;;;;;;;;;;5008365;28;20448;-89
2021/10/09 08:50:22;;;;;;;17.67;14.03;;;;;;;;;;5013131;28;20819;-89
2021/10/09 08:53:07;;;;;;;17.57;13.40;;;15.80;99.90;;;;;;5009260;28;20822;-89
2021/10/09 08:55:36;;;;;;;15.03;13.03;;;;;;;;;;5013079;28;20480;-89
2021/10/09 08:58:07;;;;;;;15.00;11.90;;;16.00;99.90;;;;;;5013524;28;20535;-89
2021/10/09 09:00:45;;;;;;;19.57;12.77;;;16.50;99.90;;;;;;5013636;28;20916;-88
2021/10/09 09:03:15;;;;;;;18.77;14.00;;;;;;;;;;5014938;28;20476;-86
2021/10/09 09:05:56;;;;;;;14.00;12.50;;;16.50;99.90;;;;;;5017917;28;20455;-88
2021/10/09 09:39:06;;;;;;;16.80;13.30;;;;;;;;;;5013527;28;20447;-90
2021/10/09 09:41:44;;;;;;;17.40;13.07;;;17.30;99.90;;;;;;5016263;28;20479;-90
2021/10/09 09:44:12;;;;;;;17.53;13.70;;;18.10;99.90;;;;;;5016757;28;20467;-87
2021/10/09 09:46:41;;;;;;;16.27;14.73;;;18.50;99.90;;;;;;5012465;28;20538;-88
2021/10/09 09:49:09;;;;;;;15.50;13.90;;;18.70;99.90;;;;;;5016213;28;20448;-92
2021/10/09 09:51:38;;;;;;;15.47;12.67;;;18.90;99.90;;;;;;5014859;28;20459;-87
2021/10/09 09:54:06;;;;;;;16.77;13.73;;;;;;;;;;5015905;28;20476;-90
2021/10/09 09:56:33;;;;;;;15.90;13.00;;;;;;;;;;5015728;28;20456;-89
2021/10/09 09:59:01;;;;;;;18.40;13.80;;;17.60;99.90;;;;;;5015416;28;20955;-90
2021/10/09 10:01:33;;;;;;;13.30;12.00;;;17.30;99.90;;;;;;5015772;28;20806;-87
2021/10/09 10:04:03;;;;;;;14.43;12.67;;;17.70;99.90;;;;;;5015505;28;20458;-89
2021/10/09 10:06:30;;;;;;;14.77;13.27;;;18.40;99.90;;;;;;5014789;28;20496;-87
2021/10/09 10:08:58;;;;;;;23.17;14.40;;;;;;;;;;5015865;28;20448;-87
2021/10/09 10:11:25;;;;;;;17.43;14.23;;;;;;;;;;5013849;28;20460;-87
2021/10/09 10:13:53;;;;;;;18.77;14.23;;;18.40;99.90;;;;;;5015322;28;20456;-87
2021/10/09 10:16:20;;;;;;;18.87;13.30;;;;;;;;;;5012271;28;20440;-92
2021/10/09 10:18:51;;;;;;;18.40;13.17;;;18.30;99.90;;;;;;5015592;28;20463;-88
2021/10/09 10:21:44;;;;;;;15.63;13.93;;;18.80;99.90;;;;;;5010806;28;20452;-88
2021/10/09 10:24:12;;;;;;;16.37;13.50;;;18.50;99.90;;;;;;5016265;28;20456;-90
2021/10/09 10:26:39;;;;;;;15.13;13.03;;;18.50;99.90;;;;;;5012483;28;20496;-88
2021/10/09 10:29:23;;;;;;;15.23;13.07;;;18.40;99.90;;;;;;5015841;28;20455;-87
2021/10/09 10:32:12;;;;;;;14.43;12.30;;;18.50;99.90;;;;;;5015279;28;20471;-89
2021/10/09 10:34:41;;;;;;;15.73;13.37;;;;;;;;;;5015632;28;20449;-91
2021/10/09 10:37:36;;;;;;;17.00;13.57;;;18.50;99.90;;;;;;5015141;28;20539;-87
2021/10/09 10:40:03;;;;;;;14.03;12.37;;;;;;;;;;5015147;28;20453;-90
2021/10/09 10:42:31;;;;;;;13.77;12.47;;;;;;;;;;5015429;28;20463;-89
2021/10/09 10:45:05;;;;;;;17.57;12.83;;;19.50;99.90;;;;;;5015280;28;20456;-89
2021/10/09 10:47:53;;;;;;;15.60;13.23;;;19.30;99.50;;;;;;5011848;28;20515;-91
2021/10/09 10:57:18;;;;;;;18.50;12.43;;;19.00;99.20;;;;;;5015736;28;20551;-89
2021/10/09 10:59:46;;;;;;;19.83;12.50;;;;;;;;;;5015228;28;20534;-89
2021/10/09 11:02:14;;;;;;;17.00;11.53;;;18.90;99.10;;;;;;5021746;28;20471;-88
2021/10/09 11:04:43;;;;;;;13.03;11.10;;;19.10;98.50;;;;;;5022009;28;20440;-92
2021/10/09 11:07:10;;;;;;;15.37;11.47;;;;;;;;;;5014104;28;20487;-89
2021/10/09 11:09:38;;;;;;;15.40;11.33;;;;;;;;;;5015701;28;20453;-90
2021/10/09 11:12:06;;;;;;;15.83;11.53;;;;;;;;;;5015425;28;20818;-91
2021/10/09 11:14:34;;;;;;;13.13;11.70;;;;;;;;;;5015053;28;20448;-91
2021/10/09 11:17:02;;;;;;;13.90;10.07;;;;;;;;;;5014681;28;20452;-91
2021/10/09 11:19:47;;;;;;;12.30;11.00;;;18.90;96.30;;;;;;5018041;28;20440;-89
2021/10/09 11:22:16;;;;;;;12.03;10.93;;;18.60;98.30;;;;;;5014187;28;20440;-88
2021/10/09 11:24:44;;;;;;;17.03;11.33;;;19.20;97.70;;;;;;5014218;28;20459;-89
2021/10/09 11:27:12;;;;;;;13.27;10.60;;;19.00;96.80;;;;;;5014240;28;20676;-88
2021/10/09 11:29:41;;;;;;;16.57;11.10;;;18.90;96.50;;;;;;5014110;28;20460;-90
2021/10/09 11:32:10;;;;;;;18.10;10.40;;;18.50;96.20;;;;;;5013714;28;20452;-90
2021/10/09 11:34:50;;;;;;;13.00;10.10;;;18.10;97.50;;;;;;5014165;28;20467;-90
2021/10/09 11:37:18;;;;;;;13.10;9.87;;;;;;;;;;5012738;28;20440;-88
2021/10/09 11:39:49;;;;;;;13.23;10.70;;;;;;;;;;5013893;28;20457;-88
2021/10/09 11:42:19;;;;;;;12.63;10.67;;;;;;;;;;5014071;28;20457;-90
2021/10/09 11:45:16;;;;;;;12.97;10.33;;;18.60;98.20;;;;;;5014008;28;20511;-88
2021/10/09 11:56:13;;;;;;;15.97;8.83;;;19.50;96.30;;;;;;4934255;29;20443;-90
2021/10/09 11:58:48;;;;;;;11.23;9.20;;;19.70;96.70;;;;;;4992983;28;20487;-91
2021/10/09 12:01:42;;;;;;;14.00;9.43;;;19.50;94.40;;;;;;5013686;28;20455;-87
2021/10/09 12:04:17;;;;;;;10.27;9.03;;;18.60;95.60;;;;;;5013685;28;20816;-90
2021/10/09 12:06:46;;;;;;;11.63;8.47;;;19.60;96.10;;;;;;5009774;28;20998;-89
2021/10/09 12:09:15;;;;;;;10.33;9.00;;;;;;;;;;5013835;28;20456;-89
2021/10/09 12:11:43;;;;;;;10.80;9.70;;;19.90;94.20;;;;;;5014508;28;20478;-90
2021/10/09 12:14:14;;;;;;;15.60;9.70;;;20.10;95.00;;;;;;5008918;28;20514;-90
2021/10/09 12:16:44;;;;;;;15.40;9.40;;;18.70;94.60;;;;;;5012125;28;20455;-91
2021/10/09 12:19:13;;;;;;;13.03;9.47;;;18.00;95.30;;;;;;5016339;28;20448;-88
2021/10/09 12:21:42;;;;;;;12.10;9.17;;;18.40;97.10;;;;;;5011110;28;20448;-91
2021/10/09 12:24:13;;;;;;;11.43;10.00;;;18.80;97.00;;;;;;5016260;28;20449;-90
2021/10/09 12:26:40;;;;;;;11.10;9.73;;;;;;;;;;5014071;28;20455;-90
2021/10/09 12:29:10;;;;;;;15.43;8.40;;;19.50;95.20;;;;;;5018845;28;20460;-85
2021/10/09 12:31:40;;;;;;;11.67;9.67;;;18.60;95.40;;;;;;5017862;28;20452;-88
2021/10/09 12:34:41;;;;;;;13.37;9.50;;;19.00;96.30;;;;;;5011258;28;20475;-91
2021/10/09 12:37:22;;;;;;;12.57;9.40;;;19.40;95.10;;;;;;5012264;28;20445;-89
2021/10/09 12:40:13;;;;;;;18.83;9.23;;;19.90;94.70;;;;;;5013095;28;20855;-88
2021/10/09 12:42:47;;;;;;;10.80;9.70;;;18.80;94.60;;;;;;5013028;28;20452;-87
2021/10/09 12:45:14;;;;;;;13.73;10.40;;;;;;;;;;5014357;28;20936;-87
2021/10/09 12:47:42;;;;;;;13.83;10.10;;;19.70;95.80;;;;;;5010687;28;20542;-89
2021/10/09 12:50:10;;;;;;;13.57;9.80;;;19.50;95.00;;;;;;5017081;28;20440;-89
2021/10/09 12:52:38;;;;;;;10.57;9.47;;;19.60;94.70;;;;;;5015591;28;20459;-86
2021/10/09 12:55:06;;;;;;;15.07;9.20;;;20.00;95.40;;;;;;5016766;28;20452;-90
2021/10/09 12:57:34;;;;;;;14.03;10.43;;;;;;;;;;5008752;28;20448;-88
2021/10/09 13:00:01;;;;;;;15.43;10.07;;;;;;;;;;5013100;28;20476;-88
2021/10/09 13:02:28;;;;;;;12.00;10.57;;;;;;;;;;5017324;28;20456;-90
2021/10/09 13:04:56;;;;;;;14.73;10.50;;;;;;;;;;5013955;28;20448;-89
2021/10/09 13:07:23;;;;;;;11.50;9.70;;;;;;;;;;5015991;28;20491;-89
2021/10/09 13:09:53;;;;;;;11.57;9.70;;;18.90;97.20;;;;;;5018476;28;20460;-91
2021/10/09 13:12:20;;;;;;;13.10;9.80;;;;;;;;;;5014047;28;20448;-90
2021/10/09 13:14:47;;;;;;;10.40;9.13;;;;;;;;;;5017240;28;20458;-88
2021/10/09 13:17:14;;;;;;;15.20;9.87;;;;;;;;;;5017468;28;20962;-89
2021/10/09 13:19:41;;;;;;;12.83;10.20;;;;;;;;;;5014670;28;20478;-89
2021/10/09 13:22:08;;;;;;;14.37;9.60;;;;;;;;;;5016017;28;20448;-90
2021/10/09 13:24:35;;;;;;;11.03;9.30;;;;;;;;;;5017174;28;20445;-88
2021/10/09 13:27:04;;;;;;;17.17;9.60;;;19.00;95.40;;;;;;5012678;28;20452;-88
2021/10/09 13:29:31;;;;;;;11.00;9.90;;;;;;;;;;5014426;28;20459;-88
2021/10/09 13:31:58;;;;;;;11.40;9.13;;;;;;;;;;5017809;28;20523;-89
2021/10/09 13:34:25;;;;;;;10.97;8.73;;;;;;;;;;5018783;28;20561;-88
2021/10/09 13:36:52;;;;;;;12.00;8.80;;;;;;;;;;5016222;28;20502;-91
2021/10/09 13:39:20;;;;;;;12.20;9.70;;;;;;;;;;5017719;28;20444;-89
2021/10/09 13:41:47;;;;;;;10.90;9.80;;;;;;;;;;5014637;28;20837;-91
2021/10/09 13:44:15;;;;;;;10.70;8.73;;;18.50;95.70;;;;;;5015548;28;20539;-89
2021/10/09 13:46:45;;;;;;;10.63;9.50;;;18.70;95.20;;;;;;5014635;28;20451;-88
2021/10/09 13:49:13;;;;;;;11.93;9.13;;;;;;;;;;5017200;28;20563;-90
2021/10/09 13:51:40;;;;;;;9.30;8.17;;;;;;;;;;5015878;28;20518;-90
2021/10/09 13:54:07;;;;;;;11.70;9.43;;;;;;;;;;5013364;28;20520;-86
2021/10/09 13:56:34;;;;;;;11.03;8.87;;;;;;;;;;5021535;28;20444;-89
2021/10/09 13:59:01;;;;;;;10.80;9.40;;;;;;;;;;5017363;28;20488;-88
2021/10/09 14:01:29;;;;;;;12.33;9.33;;;18.50;95.40;;;;;;5015527;28;20453;-89
2021/10/09 14:03:56;;;;;;;9.53;8.60;;;;;;;;;;5015859;28;20539;-88
2021/10/09 14:06:23;;;;;;;10.07;9.07;;;;;;;;;;5014479;28;20444;-89
2021/10/09 14:08:51;;;;;;;10.10;8.83;;;;;;;;;;5015439;28;20496;-88
2021/10/09 14:11:20;;;;;;;10.73;9.33;;;;;;;;;;5015630;28;20571;-92
2021/10/09 14:13:47;;;;;;;11.90;8.87;;;;;;;;;;5015152;28;20453;-90
2021/10/09 14:16:14;;;;;;;10.47;9.20;;;;;;;;;;5015364;28;20461;-88
2021/10/09 14:18:42;;;;;;;9.47;8.57;;;19.00;94.80;;;;;;5012479;28;20448;-88
2021/10/09 14:21:09;;;;;;;10.60;9.20;;;;;;;;;;5011091;28;20484;-89
2021/10/09 14:23:36;;;;;;;9.27;8.30;;;;;;;;;;5015651;28;20461;-89
2021/10/09 14:26:04;;;;;;;9.67;8.67;;;;;;;;;;5015369;28;20448;-88
2021/10/09 14:28:31;;;;;;;11.27;8.90;;;;;;;;;;5015221;28;20514;-88
2021/10/09 14:30:58;;;;;;;12.27;9.70;;;;;;;;;;5015337;28;20451;-88
2021/10/09 14:33:25;;;;;;;11.27;8.10;;;;;;;;;;5012321;28;20449;-89
2021/10/09 14:35:54;;;;;;;14.13;8.40;;;18.10;95.90;;;;;;5010303;28;20448;-89
2021/10/09 14:38:22;;;;;;;16.00;8.87;;;;;;;;;;5015203;28;20948;-91
2021/10/09 14:40:49;;;;;;;13.10;9.17;;;;;;;;;;5014987;28;20455;-88
2021/10/09 14:43:16;;;;;;;9.97;8.17;;;17.90;96.40;;;;;;5015251;28;20833;-90
2021/10/09 14:45:45;;;;;;;10.67;8.67;;;;;;;;;;5015080;28;20447;-92
2021/10/09 14:48:15;;;;;;;10.70;8.20;;;;;;;;;;5015583;28;21030;-92
2021/10/09 14:51:01;;;;;;;9.70;8.30;;;;;;;;;;5010332;28;20471;-90
2021/10/09 15:01:17;;;;;;;11.80;7.77;;;;;;;;;;5014975;28;20531;-91
2021/10/09 15:18:42;;;;;;;12.80;8.20;;;;;;;;;;4942156;28;20586;-88
2021/10/09 15:21:09;;;;;;;11.20;8.20;;;;;;;;;;5010164;28;20452;-90
2021/10/09 15:23:36;;;;;;;9.17;7.20;;;;;;;;;;5026914;28;20456;-87
2021/10/09 15:26:05;;;;;;;10.30;8.97;;;18.00;96.10;;;;;;5026682;28;20451;-88
2021/10/09 15:28:32;;;;;;;10.53;7.00;;;;;;;;;;5016658;28;21018;-91
2021/10/09 15:30:59;;;;;;;9.53;7.07;;;;;;;;;;5015013;28;20818;-91
2021/10/09 15:33:26;;;;;;;12.70;7.87;;;;;;;;;;5016143;28;20448;-92
2021/10/09 15:35:53;;;;;;;9.00;7.13;;;;;;;;;;5015279;28;20932;-87
2021/10/09 15:38:20;;;;;;;9.90;8.20;;;;;;;;;;5017597;28;20459;-90
2021/10/09 15:40:47;;;;;;;9.97;8.37;;;;;;;;;;5016201;28;20805;-91
2021/10/09 15:43:16;;;;;;;8.63;6.60;;;;;;;;;;5011251;28;20823;-88
2021/10/09 15:45:43;;;;;;;8.97;7.80;;;;;;;;;;5014212;28;20452;-89
2021/10/09 15:48:10;;;;;;;8.33;7.53;;;;;;;;;;5019253;28;20490;-88
2021/10/09 15:50:37;;;;;;;8.90;6.83;;;;;;;;;;5018902;28;20457;-92
2021/10/09 15:53:05;;;;;;;11.50;7.40;;;;;;;;;;5012739;28;20452;-91
2021/10/09 15:55:32;;;;;;;6.80;6.10;;;;;;;;;;5014050;28;20457;-90
2021/10/09 15:57:59;;;;;;;8.70;7.23;;;;;;;;;;5013591;28;20504;-87
2021/10/09 16:00:28;;;;;;;7.40;6.10;;;;;;;;;;5013741;28;20452;-91
2021/10/09 16:02:55;;;;;;;9.30;7.20;;;;;;;;;;5013814;28;20444;-89
2021/10/09 16:05:22;;;;;;;7.97;6.33;;;;;;;;;;5013786;28;20460;-91
2021/10/09 16:07:49;;;;;;;8.70;6.17;;;;;;;;;;5012511;28;20456;-89
2021/10/09 16:10:16;;;;;;;7.23;5.60;;;;;;;;;;5011027;28;20950;-93
2021/10/09 16:12:43;;;;;;;12.23;7.23;;;;;;;;;;5013807;28;20452;-91
2021/10/09 16:15:11;;;;;;;16.57;6.43;;;;;;;;;;5014265;28;20455;-88
2021/10/09 16:17:39;;;;;;;8.63;6.40;;;14.90;99.90;;;;;;5014069;28;20448;-92